sensor_id;sensor_type;location;lat;lon;timestamp;temperature;humidity
5246;DHT22;54412;51.206;6.888;2023-02-03T00:01:33;9.10;99.90
5246;DHT22;54412;51.206;6.888;2023-02-03T00:03:59;9.10;99.90
5246;DHT22;54412;51.206;6.888;2023-02-03T00:06:25;9.10;99.90
5246;DHT22;54412;51.206;6.888;2023-02-03T00:08:53;9.20;99.90
5246;DHT22;54412;51.206;6.888;2023-02-03T00:11:21;9.10;99.90
5246;DHT22;54412;51.206;6.888;2023-02-03T00:13:47;9.10;99.90
5246;DHT22;54412;51.206;6.888;2023-02-03T00:16:13;9.10;99.90
5246;DHT22;54412;51.206;6.888;2023-02-03T00:18:38;9.10;99.90
5246;DHT22;54412;51.206;6.888;2023-02-03T00:21:05;9.10;99.90
5246;DHT22;54412;51.206;6.888;2023-02-03T00:23:31;9.20;99.90
5246;DHT22;54412;51.206;6.888;2023-02-03T00:26:17;9.20;99.90
5246;DHT22;54412;51.206;6.888;2023-02-03T00:28:43;9.10;99.90
5246;DHT22;54412;51.206;6.888;2023-02-03T00:31:17;9.20;99.90
5246;DHT22;54412;51.206;6.888;2023-02-03T00:33:46;9.20;99.90
5246;DHT22;54412;51.206;6.888;2023-02-03T00:36:12;9.20;99.90
5246;DHT22;54412;51.206;6.888;2023-02-03T00:38:38;9.30;99.90
5246;DHT22;54412;51.206;6.888;2023-02-03T00:41:04;9.20;99.90
5246;DHT22;54412;51.206;6.888;2023-02-03T00:43:30;9.20;99.90
5246;DHT22;54412;51.206;6.888;2023-02-03T00:45:56;9.20;99.90
5246;DHT22;54412;51.206;6.888;2023-02-03T00:48:21;9.20;99.90
5246;DHT22;54412;51.206;6.888;2023-02-03T00:50:47;9.20;99.90
5246;DHT22;54412;51.206;6.888;2023-02-03T00:53:13;9.20;99.90
5246;DHT22;54412;51.206;6.888;2023-02-03T00:55:42;9.20;99.90
5246;DHT22;54412;51.206;6.888;2023-02-03T00:58:08;9.20;99.90
5246;DHT22;54412;51.206;6.888;2023-02-03T01:00:33;9.20;99.90
5246;DHT22;54412;51.206;6.888;2023-02-03T01:02:59;9.20;99.90
5246;DHT22;54412;51.206;6.888;2023-02-03T01:05:25;9.30;99.90
5246;DHT22;54412;51.206;6.888;2023-02-03T01:07:50;9.30;99.90
5246;DHT22;54412;51.206;6.888;2023-02-03T01:10:16;9.20;99.90
5246;DHT22;54412;51.206;6.888;2023-02-03T01:12:42;9.30;99.90
5246;DHT22;54412;51.206;6.888;2023-02-03T01:15:08;9.30;99.90
5246;DHT22;54412;51.206;6.888;2023-02-03T01:17:33;9.30;99.90
5246;DHT22;54412;51.206;6.888;2023-02-03T01:19:59;9.30;99.90
5246;DHT22;54412;51.206;6.888;2023-02-03T01:22:25;9.30;99.90
5246;DHT22;54412;51.206;6.888;2023-02-03T01:24:53;9.20;99.90
5246;DHT22;54412;51.206;6.888;2023-02-03T01:27:18;9.20;99.90
5246;DHT22;54412;51.206;6.888;2023-02-03T01:29:44;9.30;99.90
5246;DHT22;54412;51.206;6.888;2023-02-03T01:32:10;9.40;99.90
5246;DHT22;54412;51.206;6.888;2023-02-03T01:34:35;9.30;99.90
5246;DHT22;54412;51.206;6.888;2023-02-03T01:37:01;9.30;99.90
5246;DHT22;54412;51.206;6.888;2023-02-03T01:39:26;9.30;99.90
5246;DHT22;54412;51.206;6.888;2023-02-03T01:41:54;9.30;99.90
5246;DHT22;54412;51.206;6.888;2023-02-03T01:47:40;9.30;99.90
5246;DHT22;54412;51.206;6.888;2023-02-03T01:50:25;9.40;99.90
5246;DHT22;54412;51.206;6.888;2023-02-03T01:53:00;9.30;99.90
5246;DHT22;54412;51.206;6.888;2023-02-03T01:55:36;9.30;99.90
5246;DHT22;54412;51.206;6.888;2023-02-03T01:58:11;9.30;99.90
5246;DHT22;54412;51.206;6.888;2023-02-03T02:00:46;9.30;99.90
5246;DHT22;54412;51.206;6.888;2023-02-03T02:03:14;9.30;99.90
5246;DHT22;54412;51.206;6.888;2023-02-03T02:05:49;9.30;99.90
5246;DHT22;54412;51.206;6.888;2023-02-03T02:08:19;9.30;99.90
5246;DHT22;54412;51.206;6.888;2023-02-03T02:10:47;9.30;99.90
5246;DHT22;54412;51.206;6.888;2023-02-03T02:13:14;9.40;99.90
5246;DHT22;54412;51.206;6.888;2023-02-03T02:33:07;9.40;99.90
5246;DHT22;54412;51.206;6.888;2023-02-03T02:39:09;9.40;99.90
5246;DHT22;54412;51.206;6.888;2023-02-03T02:41:51;9.40;99.90
5246;DHT22;54412;51.206;6.888;2023-02-03T02:44:24;9.50;99.90
5246;DHT22;54412;51.206;6.888;2023-02-03T02:47:01;9.50;99.90
5246;DHT22;54412;51.206;6.888;2023-02-03T02:49:36;9.50;99.90
5246;DHT22;54412;51.206;6.888;2023-02-03T02:52:07;9.50;99.90
5246;DHT22;54412;51.206;6.888;2023-02-03T02:54:39;9.60;99.90
5246;DHT22;54412;51.206;6.888;2023-02-03T02:57:11;9.50;99.90
5246;DHT22;54412;51.206;6.888;2023-02-03T02:59:38;9.50;99.90
5246;DHT22;54412;51.206;6.888;2023-02-03T03:02:04;9.50;99.90
5246;DHT22;54412;51.206;6.888;2023-02-03T03:04:32;9.50;99.90
5246;DHT22;54412;51.206;6.888;2023-02-03T03:07:05;9.50;99.90
5246;DHT22;54412;51.206;6.888;2023-02-03T03:09:46;9.50;99.90
5246;DHT22;54412;51.206;6.888;2023-02-03T03:12:30;9.40;99.90
5246;DHT22;54412;51.206;6.888;2023-02-03T03:15:03;9.30;99.90
5246;DHT22;54412;51.206;6.888;2023-02-03T03:17:45;9.40;99.90
5246;DHT22;54412;51.206;6.888;2023-02-03T03:20:21;9.40;99.90
5246;DHT22;54412;51.206;6.888;2023-02-03T03:23:04;9.40;99.90
5246;DHT22;54412;51.206;6.888;2023-02-03T03:25:39;9.40;99.90
5246;DHT22;54412;51.206;6.888;2023-02-03T03:28:16;9.50;99.90
5246;DHT22;54412;51.206;6.888;2023-02-03T03:30:51;9.50;99.90
5246;DHT22;54412;51.206;6.888;2023-02-03T03:33:18;9.50;99.90
5246;DHT22;54412;51.206;6.888;2023-02-03T03:35:53;9.50;99.90
5246;DHT22;54412;51.206;6.888;2023-02-03T03:38:40;9.50;99.90
5246;DHT22;54412;51.206;6.888;2023-02-03T03:43:53;9.50;99.90
5246;DHT22;54412;51.206;6.888;2023-02-03T03:46:28;9.40;99.90
5246;DHT22;54412;51.206;6.888;2023-02-03T03:49:02;9.40;99.90
5246;DHT22;54412;51.206;6.888;2023-02-03T03:51:39;9.50;99.90
5246;DHT22;54412;51.206;6.888;2023-02-03T03:54:12;9.50;99.90
5246;DHT22;54412;51.206;6.888;2023-02-03T03:56:52;9.50;99.90
5246;DHT22;54412;51.206;6.888;2023-02-03T03:59:25;9.50;99.90
5246;DHT22;54412;51.206;6.888;2023-02-03T04:01:56;9.60;99.90
5246;DHT22;54412;51.206;6.888;2023-02-03T04:04:29;9.50;99.90
5246;DHT22;54412;51.206;6.888;2023-02-03T04:06:58;9.50;99.90
5246;DHT22;54412;51.206;6.888;2023-02-03T04:09:24;9.50;99.90
5246;DHT22;54412;51.206;6.888;2023-02-03T04:11:50;9.60;99.90
5246;DHT22;54412;51.206;6.888;2023-02-03T04:14:36;9.50;99.90
5246;DHT22;54412;51.206;6.888;2023-02-03T04:17:05;9.60;99.90
5246;DHT22;54412;51.206;6.888;2023-02-03T04:19:31;9.60;99.90
5246;DHT22;54412;51.206;6.888;2023-02-03T04:21:56;9.60;99.90
5246;DHT22;54412;51.206;6.888;2023-02-03T04:24:22;9.60;99.90
5246;DHT22;54412;51.206;6.888;2023-02-03T04:26:48;9.50;99.90
5246;DHT22;54412;51.206;6.888;2023-02-03T04:29:14;9.40;99.90
5246;DHT22;54412;51.206;6.888;2023-02-03T04:31:39;9.40;99.90
5246;DHT22;54412;51.206;6.888;2023-02-03T04:34:05;9.40;99.90
5246;DHT22;54412;51.206;6.888;2023-02-03T04:36:31;9.40;99.90
5246;DHT22;54412;51.206;6.888;2023-02-03T04:38:56;9.40;99.90
5246;DHT22;54412;51.206;6.888;2023-02-03T04:41:22;9.30;99.90
5246;DHT22;54412;51.206;6.888;2023-02-03T04:43:48;9.40;99.90
5246;DHT22;54412;51.206;6.888;2023-02-03T04:46:13;9.40;99.90
5246;DHT22;54412;51.206;6.888;2023-02-03T04:48:39;9.30;99.90
5246;DHT22;54412;51.206;6.888;2023-02-03T04:51:07;9.30;99.90
5246;DHT22;54412;51.206;6.888;2023-02-03T04:53:33;9.40;99.90
5246;DHT22;54412;51.206;6.888;2023-02-03T04:55:59;9.40;99.90
5246;DHT22;54412;51.206;6.888;2023-02-03T04:58:25;9.40;99.90
5246;DHT22;54412;51.206;6.888;2023-02-03T05:00:52;9.40;99.90
5246;DHT22;54412;51.206;6.888;2023-02-03T05:03:18;9.50;99.90
5246;DHT22;54412;51.206;6.888;2023-02-03T05:05:44;9.50;99.90
5246;DHT22;54412;51.206;6.888;2023-02-03T05:08:10;9.40;99.90
5246;DHT22;54412;51.206;6.888;2023-02-03T05:10:35;9.40;99.90
5246;DHT22;54412;51.206;6.888;2023-02-03T05:13:01;9.40;99.90
5246;DHT22;54412;51.206;6.888;2023-02-03T05:15:27;9.40;99.90
5246;DHT22;54412;51.206;6.888;2023-02-03T05:17:53;9.40;99.90
5246;DHT22;54412;51.206;6.888;2023-02-03T05:20:20;9.40;99.90
5246;DHT22;54412;51.206;6.888;2023-02-03T05:22:46;9.30;99.90
5246;DHT22;54412;51.206;6.888;2023-02-03T05:25:12;9.30;99.90
5246;DHT22;54412;51.206;6.888;2023-02-03T05:27:39;9.30;99.90
5246;DHT22;54412;51.206;6.888;2023-02-03T05:30:07;9.30;99.90
5246;DHT22;54412;51.206;6.888;2023-02-03T05:32:33;9.30;99.90
5246;DHT22;54412;51.206;6.888;2023-02-03T05:34:59;9.40;99.90
5246;DHT22;54412;51.206;6.888;2023-02-03T05:37:25;9.40;99.90
5246;DHT22;54412;51.206;6.888;2023-02-03T05:39:50;9.40;99.90
5246;DHT22;54412;51.206;6.888;2023-02-03T05:42:16;9.40;99.90
5246;DHT22;54412;51.206;6.888;2023-02-03T05:44:42;9.40;99.90
5246;DHT22;54412;51.206;6.888;2023-02-03T05:47:07;9.40;99.90
5246;DHT22;54412;51.206;6.888;2023-02-03T05:49:33;9.50;99.90
5246;DHT22;54412;51.206;6.888;2023-02-03T05:51:59;9.60;99.90
5246;DHT22;54412;51.206;6.888;2023-02-03T05:54:24;9.60;99.90
5246;DHT22;54412;51.206;6.888;2023-02-03T05:56:50;9.60;99.90
5246;DHT22;54412;51.206;6.888;2023-02-03T05:59:16;9.60;99.90
5246;DHT22;54412;51.206;6.888;2023-02-03T06:01:41;9.60;99.90
5246;DHT22;54412;51.206;6.888;2023-02-03T06:04:07;9.50;99.90
5246;DHT22;54412;51.206;6.888;2023-02-03T06:06:34;9.50;99.90
5246;DHT22;54412;51.206;6.888;2023-02-03T06:09:02;9.50;99.90
5246;DHT22;54412;51.206;6.888;2023-02-03T06:11:30;9.60;99.90
5246;DHT22;54412;51.206;6.888;2023-02-03T06:13:57;9.60;99.90
5246;DHT22;54412;51.206;6.888;2023-02-03T06:16:27;9.60;99.90
5246;DHT22;54412;51.206;6.888;2023-02-03T06:18:54;9.60;99.90
5246;DHT22;54412;51.206;6.888;2023-02-03T06:21:25;9.50;99.90
5246;DHT22;54412;51.206;6.888;2023-02-03T06:23:51;9.60;99.90
5246;DHT22;54412;51.206;6.888;2023-02-03T06:26:17;9.60;99.90
5246;DHT22;54412;51.206;6.888;2023-02-03T06:28:43;9.60;99.90
5246;DHT22;54412;51.206;6.888;2023-02-03T06:31:08;9.60;99.90
5246;DHT22;54412;51.206;6.888;2023-02-03T06:33:34;9.70;99.90
5246;DHT22;54412;51.206;6.888;2023-02-03T06:36:00;9.70;99.90
5246;DHT22;54412;51.206;6.888;2023-02-03T06:38:25;9.70;99.90
5246;DHT22;54412;51.206;6.888;2023-02-03T06:40:51;9.60;99.90
5246;DHT22;54412;51.206;6.888;2023-02-03T06:43:17;9.60;99.90
5246;DHT22;54412;51.206;6.888;2023-02-03T06:45:46;9.60;99.90
5246;DHT22;54412;51.206;6.888;2023-02-03T06:48:12;9.60;99.90
5246;DHT22;54412;51.206;6.888;2023-02-03T06:50:38;9.60;99.90
5246;DHT22;54412;51.206;6.888;2023-02-03T06:53:05;9.70;99.90
5246;DHT22;54412;51.206;6.888;2023-02-03T06:55:30;9.70;99.90
5246;DHT22;54412;51.206;6.888;2023-02-03T06:57:56;9.70;99.90
5246;DHT22;54412;51.206;6.888;2023-02-03T07:00:22;9.70;99.90
5246;DHT22;54412;51.206;6.888;2023-02-03T07:02:56;9.70;99.90
5246;DHT22;54412;51.206;6.888;2023-02-03T07:05:23;9.70;99.90
5246;DHT22;54412;51.206;6.888;2023-02-03T07:07:50;9.70;99.90
5246;DHT22;54412;51.206;6.888;2023-02-03T07:10:16;9.70;99.90
5246;DHT22;54412;51.206;6.888;2023-02-03T07:12:42;9.70;99.90
5246;DHT22;54412;51.206;6.888;2023-02-03T07:15:09;9.70;99.90
5246;DHT22;54412;51.206;6.888;2023-02-03T07:17:36;9.80;99.90
5246;DHT22;54412;51.206;6.888;2023-02-03T07:20:02;9.90;99.90
5246;DHT22;54412;51.206;6.888;2023-02-03T07:22:28;10.10;99.90
5246;DHT22;54412;51.206;6.888;2023-02-03T07:24:54;10.20;99.90
5246;DHT22;54412;51.206;6.888;2023-02-03T07:27:20;10.10;99.90
5246;DHT22;54412;51.206;6.888;2023-02-03T07:29:46;10.00;99.90
5246;DHT22;54412;51.206;6.888;2023-02-03T07:32:11;10.00;99.90
5246;DHT22;54412;51.206;6.888;2023-02-03T07:34:37;10.00;99.90
5246;DHT22;54412;51.206;6.888;2023-02-03T07:37:03;10.00;99.90
5246;DHT22;54412;51.206;6.888;2023-02-03T07:39:28;9.90;99.90
5246;DHT22;54412;51.206;6.888;2023-02-03T07:41:54;10.00;99.90
5246;DHT22;54412;51.206;6.888;2023-02-03T07:44:20;10.10;99.90
5246;DHT22;54412;51.206;6.888;2023-02-03T07:46:45;10.00;99.90
5246;DHT22;54412;51.206;6.888;2023-02-03T07:49:11;10.00;99.90
5246;DHT22;54412;51.206;6.888;2023-02-03T07:51:38;9.90;99.90
5246;DHT22;54412;51.206;6.888;2023-02-03T07:54:03;9.90;99.90
5246;DHT22;54412;51.206;6.888;2023-02-03T07:56:29;9.90;99.90
5246;DHT22;54412;51.206;6.888;2023-02-03T07:58:57;9.90;99.90
5246;DHT22;54412;51.206;6.888;2023-02-03T08:01:24;9.90;99.90
5246;DHT22;54412;51.206;6.888;2023-02-03T08:03:50;9.90;99.90
5246;DHT22;54412;51.206;6.888;2023-02-03T08:06:16;9.80;99.90
5246;DHT22;54412;51.206;6.888;2023-02-03T08:08:42;9.80;99.90
5246;DHT22;54412;51.206;6.888;2023-02-03T08:11:08;9.90;99.90
5246;DHT22;54412;51.206;6.888;2023-02-03T08:13:34;9.90;99.90
5246;DHT22;54412;51.206;6.888;2023-02-03T08:16:00;9.80;99.90
5246;DHT22;54412;51.206;6.888;2023-02-03T08:18:25;9.80;99.90
5246;DHT22;54412;51.206;6.888;2023-02-03T08:20:51;9.80;99.90
5246;DHT22;54412;51.206;6.888;2023-02-03T08:23:17;9.80;99.90
5246;DHT22;54412;51.206;6.888;2023-02-03T08:25:42;9.80;99.90
5246;DHT22;54412;51.206;6.888;2023-02-03T08:28:08;9.80;99.90
5246;DHT22;54412;51.206;6.888;2023-02-03T08:30:34;9.80;99.90
5246;DHT22;54412;51.206;6.888;2023-02-03T08:32:59;9.90;99.90
5246;DHT22;54412;51.206;6.888;2023-02-03T08:35:25;9.90;99.90
5246;DHT22;54412;51.206;6.888;2023-02-03T08:37:51;9.80;99.90
5246;DHT22;54412;51.206;6.888;2023-02-03T08:40:17;9.80;99.90
5246;DHT22;54412;51.206;6.888;2023-02-03T08:42:43;9.80;99.90
5246;DHT22;54412;51.206;6.888;2023-02-03T08:45:09;9.80;99.90
5246;DHT22;54412;51.206;6.888;2023-02-03T08:47:35;9.80;99.90
5246;DHT22;54412;51.206;6.888;2023-02-03T08:50:03;9.80;99.90
5246;DHT22;54412;51.206;6.888;2023-02-03T08:52:30;9.80;99.90
5246;DHT22;54412;51.206;6.888;2023-02-03T08:54:56;9.80;99.90
5246;DHT22;54412;51.206;6.888;2023-02-03T08:57:21;9.80;99.90
5246;DHT22;54412;51.206;6.888;2023-02-03T08:59:48;9.80;99.90
5246;DHT22;54412;51.206;6.888;2023-02-03T09:02:17;9.70;99.90
5246;DHT22;54412;51.206;6.888;2023-02-03T09:04:44;9.70;99.90
5246;DHT22;54412;51.206;6.888;2023-02-03T09:07:12;9.70;99.90
5246;DHT22;54412;51.206;6.888;2023-02-03T09:09:37;9.70;99.90
5246;DHT22;54412;51.206;6.888;2023-02-03T09:12:05;9.70;99.90
5246;DHT22;54412;51.206;6.888;2023-02-03T09:14:32;9.70;99.90
5246;DHT22;54412;51.206;6.888;2023-02-03T09:16:59;9.70;99.90
5246;DHT22;54412;51.206;6.888;2023-02-03T09:19:28;9.70;99.90
5246;DHT22;54412;51.206;6.888;2023-02-03T09:21:54;9.70;99.90
5246;DHT22;54412;51.206;6.888;2023-02-03T09:24:21;9.70;99.90
5246;DHT22;54412;51.206;6.888;2023-02-03T09:26:48;9.60;99.90
5246;DHT22;54412;51.206;6.888;2023-02-03T09:29:14;9.60;99.90
5246;DHT22;54412;51.206;6.888;2023-02-03T09:31:39;9.70;99.90
5246;DHT22;54412;51.206;6.888;2023-02-03T09:34:06;9.70;99.90
5246;DHT22;54412;51.206;6.888;2023-02-03T09:36:32;9.70;99.90
5246;DHT22;54412;51.206;6.888;2023-02-03T09:38:58;9.70;99.90
5246;DHT22;54412;51.206;6.888;2023-02-03T09:44:23;9.60;99.90
5246;DHT22;54412;51.206;6.888;2023-02-03T09:47:11;9.60;99.90
5246;DHT22;54412;51.206;6.888;2023-02-03T09:49:47;9.50;99.90
5246;DHT22;54412;51.206;6.888;2023-02-03T09:52:32;9.60;99.90
5246;DHT22;54412;51.206;6.888;2023-02-03T10:01:07;9.60;99.90
5246;DHT22;54412;51.206;6.888;2023-02-03T10:03:51;9.50;99.90
5246;DHT22;54412;51.206;6.888;2023-02-03T10:06:38;9.50;99.90
5246;DHT22;54412;51.206;6.888;2023-02-03T10:12:59;9.60;99.90
5246;DHT22;54412;51.206;6.888;2023-02-03T10:18:37;9.60;99.90
5246;DHT22;54412;51.206;6.888;2023-02-03T10:21:18;9.60;99.90
5246;DHT22;54412;51.206;6.888;2023-02-03T10:23:49;9.50;99.90
5246;DHT22;54412;51.206;6.888;2023-02-03T10:26:23;9.50;99.90
5246;DHT22;54412;51.206;6.888;2023-02-03T10:28:54;9.60;99.90
5246;DHT22;54412;51.206;6.888;2023-02-03T10:31:23;9.60;99.90
5246;DHT22;54412;51.206;6.888;2023-02-03T10:33:59;9.60;99.90
5246;DHT22;54412;51.206;6.888;2023-02-03T10:36:51;9.60;99.90
5246;DHT22;54412;51.206;6.888;2023-02-03T10:39:45;9.60;99.90
5246;DHT22;54412;51.206;6.888;2023-02-03T10:42:15;9.60;99.90
5246;DHT22;54412;51.206;6.888;2023-02-03T10:44:46;9.60;99.90
5246;DHT22;54412;51.206;6.888;2023-02-03T10:47:40;9.60;99.90
5246;DHT22;54412;51.206;6.888;2023-02-03T10:50:26;9.70;99.90
5246;DHT22;54412;51.206;6.888;2023-02-03T10:56:04;9.60;99.90
5246;DHT22;54412;51.206;6.888;2023-02-03T10:58:33;9.60;99.90
5246;DHT22;54412;51.206;6.888;2023-02-03T11:01:22;9.70;99.90
5246;DHT22;54412;51.206;6.888;2023-02-03T11:03:54;9.70;99.90
5246;DHT22;54412;51.206;6.888;2023-02-03T11:06:23;9.70;99.90
5246;DHT22;54412;51.206;6.888;2023-02-03T11:08:50;9.80;99.90
5246;DHT22;54412;51.206;6.888;2023-02-03T11:13:45;9.70;99.90
5246;DHT22;54412;51.206;6.888;2023-02-03T11:16:16;9.70;99.90
5246;DHT22;54412;51.206;6.888;2023-02-03T11:21:45;9.70;99.90
5246;DHT22;54412;51.206;6.888;2023-02-03T11:24:20;9.70;99.90
5246;DHT22;54412;51.206;6.888;2023-02-03T11:26:59;9.80;99.90
5246;DHT22;54412;51.206;6.888;2023-02-03T11:29:33;9.80;99.90
5246;DHT22;54412;51.206;6.888;2023-02-03T11:32:32;10.00;99.90
5246;DHT22;54412;51.206;6.888;2023-02-03T11:35:02;9.90;99.90
5246;DHT22;54412;51.206;6.888;2023-02-03T11:37:41;9.90;99.90
5246;DHT22;54412;51.206;6.888;2023-02-03T11:42:59;9.90;99.90
5246;DHT22;54412;51.206;6.888;2023-02-03T11:45:37;10.00;99.90
5246;DHT22;54412;51.206;6.888;2023-02-03T11:48:26;9.90;99.90
5246;DHT22;54412;51.206;6.888;2023-02-03T11:56:34;9.90;99.90
5246;DHT22;54412;51.206;6.888;2023-02-03T12:08:26;9.90;99.90
5246;DHT22;54412;51.206;6.888;2023-02-03T12:11:34;9.90;99.90
5246;DHT22;54412;51.206;6.888;2023-02-03T12:14:43;9.90;99.90
5246;DHT22;54412;51.206;6.888;2023-02-03T12:17:49;9.80;99.90
5246;DHT22;54412;51.206;6.888;2023-02-03T12:28:45;10.00;99.90
5246;DHT22;54412;51.206;6.888;2023-02-03T12:31:32;10.00;99.90
5246;DHT22;54412;51.206;6.888;2023-02-03T12:34:16;9.90;99.90
5246;DHT22;54412;51.206;6.888;2023-02-03T12:36:55;10.00;99.90
5246;DHT22;54412;51.206;6.888;2023-02-03T12:40:15;10.10;99.90
5246;DHT22;54412;51.206;6.888;2023-02-03T12:43:11;10.10;99.90
5246;DHT22;54412;51.206;6.888;2023-02-03T12:45:56;10.20;99.90
5246;DHT22;54412;51.206;6.888;2023-02-03T12:48:31;10.20;99.90
5246;DHT22;54412;51.206;6.888;2023-02-03T12:51:11;10.20;99.90
5246;DHT22;54412;51.206;6.888;2023-02-03T12:53:50;10.20;99.90
5246;DHT22;54412;51.206;6.888;2023-02-03T12:56:25;10.20;99.90
5246;DHT22;54412;51.206;6.888;2023-02-03T12:58:56;10.20;99.90
5246;DHT22;54412;51.206;6.888;2023-02-03T13:02:08;10.20;99.90
5246;DHT22;54412;51.206;6.888;2023-02-03T13:04:50;10.20;99.90
5246;DHT22;54412;51.206;6.888;2023-02-03T13:07:36;10.30;99.90
5246;DHT22;54412;51.206;6.888;2023-02-03T13:10:20;10.30;99.90
5246;DHT22;54412;51.206;6.888;2023-02-03T13:12:55;10.30;99.90
5246;DHT22;54412;51.206;6.888;2023-02-03T13:15:29;10.40;99.90
5246;DHT22;54412;51.206;6.888;2023-02-03T13:20:46;10.40;99.90
5246;DHT22;54412;51.206;6.888;2023-02-03T13:23:13;10.40;99.90
5246;DHT22;54412;51.206;6.888;2023-02-03T13:31:19;10.40;99.90
5246;DHT22;54412;51.206;6.888;2023-02-03T13:34:06;10.50;99.90
5246;DHT22;54412;51.206;6.888;2023-02-03T13:42:46;10.50;99.90
5246;DHT22;54412;51.206;6.888;2023-02-03T13:45:29;10.60;99.90
5246;DHT22;54412;51.206;6.888;2023-02-03T13:48:19;10.60;99.90
5246;DHT22;54412;51.206;6.888;2023-02-03T13:51:19;10.60;99.90
5246;DHT22;54412;51.206;6.888;2023-02-03T13:53:49;10.50;99.90
5246;DHT22;54412;51.206;6.888;2023-02-03T13:59:26;10.50;99.90
5246;DHT22;54412;51.206;6.888;2023-02-03T14:07:38;10.60;99.90
5246;DHT22;54412;51.206;6.888;2023-02-03T14:17:57;10.50;99.90
5246;DHT22;54412;51.206;6.888;2023-02-03T14:25:47;10.50;99.90
5246;DHT22;54412;51.206;6.888;2023-02-03T14:28:21;10.40;99.90
5246;DHT22;54412;51.206;6.888;2023-02-03T14:36:32;10.40;99.90
5246;DHT22;54412;51.206;6.888;2023-02-03T14:42:14;10.50;99.90
5246;DHT22;54412;51.206;6.888;2023-02-03T14:45:06;10.50;99.90
5246;DHT22;54412;51.206;6.888;2023-02-03T14:51:27;10.50;99.90
5246;DHT22;54412;51.206;6.888;2023-02-03T14:54:36;10.40;99.90
5246;DHT22;54412;51.206;6.888;2023-02-03T15:08:32;10.40;99.90
5246;DHT22;54412;51.206;6.888;2023-02-03T15:10:59;10.40;99.90
5246;DHT22;54412;51.206;6.888;2023-02-03T15:13:39;10.30;99.90
5246;DHT22;54412;51.206;6.888;2023-02-03T15:16:04;10.30;99.90
5246;DHT22;54412;51.206;6.888;2023-02-03T15:18:40;10.30;99.90
5246;DHT22;54412;51.206;6.888;2023-02-03T15:21:17;10.20;99.90
5246;DHT22;54412;51.206;6.888;2023-02-03T15:23:46;10.10;99.90
5246;DHT22;54412;51.206;6.888;2023-02-03T15:26:22;9.90;99.90
5246;DHT22;54412;51.206;6.888;2023-02-03T15:29:02;9.70;99.90
5246;DHT22;54412;51.206;6.888;2023-02-03T15:31:46;9.70;99.90
5246;DHT22;54412;51.206;6.888;2023-02-03T15:34:32;9.70;99.90
5246;DHT22;54412;51.206;6.888;2023-02-03T15:37:07;9.60;99.90
5246;DHT22;54412;51.206;6.888;2023-02-03T15:45:33;9.70;99.90
5246;DHT22;54412;51.206;6.888;2023-02-03T15:48:30;9.60;99.90
5246;DHT22;54412;51.206;6.888;2023-02-03T15:53:50;9.80;99.90
5246;DHT22;54412;51.206;6.888;2023-02-03T15:56:37;9.70;99.90
5246;DHT22;54412;51.206;6.888;2023-02-03T15:59:22;9.80;99.90
5246;DHT22;54412;51.206;6.888;2023-02-03T16:01:54;9.80;99.90
5246;DHT22;54412;51.206;6.888;2023-02-03T16:04:21;9.80;99.90
5246;DHT22;54412;51.206;6.888;2023-02-03T16:06:50;9.90;99.90
5246;DHT22;54412;51.206;6.888;2023-02-03T16:09:44;9.90;99.90
5246;DHT22;54412;51.206;6.888;2023-02-03T16:12:17;9.90;99.90
5246;DHT22;54412;51.206;6.888;2023-02-03T16:14:52;9.90;99.90
5246;DHT22;54412;51.206;6.888;2023-02-03T16:17:29;9.90;99.90
5246;DHT22;54412;51.206;6.888;2023-02-03T16:22:44;9.90;99.90
5246;DHT22;54412;51.206;6.888;2023-02-03T16:25:19;9.80;99.90
5246;DHT22;54412;51.206;6.888;2023-02-03T16:28:03;9.90;99.90
5246;DHT22;54412;51.206;6.888;2023-02-03T16:31:15;9.90;99.90
5246;DHT22;54412;51.206;6.888;2023-02-03T16:34:04;9.90;99.90
5246;DHT22;54412;51.206;6.888;2023-02-03T16:36:55;9.90;99.90
5246;DHT22;54412;51.206;6.888;2023-02-03T16:39:39;9.80;99.90
5246;DHT22;54412;51.206;6.888;2023-02-03T16:42:23;9.90;99.90
5246;DHT22;54412;51.206;6.888;2023-02-03T16:45:17;9.90;99.90
5246;DHT22;54412;51.206;6.888;2023-02-03T16:48:02;10.00;99.90
5246;DHT22;54412;51.206;6.888;2023-02-03T16:50:47;10.00;99.90
5246;DHT22;54412;51.206;6.888;2023-02-03T16:55:49;10.00;99.90
5246;DHT22;54412;51.206;6.888;2023-02-03T16:58:16;10.00;99.90
5246;DHT22;54412;51.206;6.888;2023-02-03T17:00:44;10.00;99.90
5246;DHT22;54412;51.206;6.888;2023-02-03T17:03:23;10.00;99.90
5246;DHT22;54412;51.206;6.888;2023-02-03T17:05:52;10.00;99.90
5246;DHT22;54412;51.206;6.888;2023-02-03T17:08:21;10.10;99.90
5246;DHT22;54412;51.206;6.888;2023-02-03T17:10:49;10.10;99.90
5246;DHT22;54412;51.206;6.888;2023-02-03T17:13:16;10.10;99.90
5246;DHT22;54412;51.206;6.888;2023-02-03T17:15:49;10.10;99.90
5246;DHT22;54412;51.206;6.888;2023-02-03T17:18:17;10.10;99.90
5246;DHT22;54412;51.206;6.888;2023-02-03T17:20:44;10.10;99.90
5246;DHT22;54412;51.206;6.888;2023-02-03T17:23:11;10.10;99.90
5246;DHT22;54412;51.206;6.888;2023-02-03T17:25:38;10.10;99.90
5246;DHT22;54412;51.206;6.888;2023-02-03T17:28:06;10.10;99.90
5246;DHT22;54412;51.206;6.888;2023-02-03T17:30:33;10.10;99.90
5246;DHT22;54412;51.206;6.888;2023-02-03T17:33:00;10.10;99.90
5246;DHT22;54412;51.206;6.888;2023-02-03T17:35:27;10.10;99.90
5246;DHT22;54412;51.206;6.888;2023-02-03T17:37:53;10.10;99.90
5246;DHT22;54412;51.206;6.888;2023-02-03T17:40:19;10.10;99.90
5246;DHT22;54412;51.206;6.888;2023-02-03T17:42:45;10.10;99.90
5246;DHT22;54412;51.206;6.888;2023-02-03T17:45:11;10.10;99.90
5246;DHT22;54412;51.206;6.888;2023-02-03T17:47:37;10.10;99.90
5246;DHT22;54412;51.206;6.888;2023-02-03T17:50:03;10.10;99.90
5246;DHT22;54412;51.206;6.888;2023-02-03T17:52:29;10.10;99.90
5246;DHT22;54412;51.206;6.888;2023-02-03T17:54:54;10.10;99.90
5246;DHT22;54412;51.206;6.888;2023-02-03T17:57:20;10.10;99.90
5246;DHT22;54412;51.206;6.888;2023-02-03T17:59:47;10.10;99.90
5246;DHT22;54412;51.206;6.888;2023-02-03T18:02:17;10.10;99.90
5246;DHT22;54412;51.206;6.888;2023-02-03T18:04:43;10.10;99.90
5246;DHT22;54412;51.206;6.888;2023-02-03T18:07:09;9.90;99.90
5246;DHT22;54412;51.206;6.888;2023-02-03T18:09:34;10.00;99.90
5246;DHT22;54412;51.206;6.888;2023-02-03T18:12:00;10.00;99.90
5246;DHT22;54412;51.206;6.888;2023-02-03T18:14:26;10.00;99.90
5246;DHT22;54412;51.206;6.888;2023-02-03T18:16:51;10.00;99.90
5246;DHT22;54412;51.206;6.888;2023-02-03T18:19:17;10.00;99.90
5246;DHT22;54412;51.206;6.888;2023-02-03T18:21:43;10.00;99.90
5246;DHT22;54412;51.206;6.888;2023-02-03T18:24:11;9.90;99.90
5246;DHT22;54412;51.206;6.888;2023-02-03T18:26:49;9.90;99.90
5246;DHT22;54412;51.206;6.888;2023-02-03T18:29:17;9.90;99.90
5246;DHT22;54412;51.206;6.888;2023-02-03T18:31:43;9.90;99.90
5246;DHT22;54412;51.206;6.888;2023-02-03T18:34:09;10.00;99.90
5246;DHT22;54412;51.206;6.888;2023-02-03T18:36:35;9.90;99.90
5246;DHT22;54412;51.206;6.888;2023-02-03T18:39:02;10.00;99.90
5246;DHT22;54412;51.206;6.888;2023-02-03T18:41:28;10.00;99.90
5246;DHT22;54412;51.206;6.888;2023-02-03T18:43:54;9.90;99.90
5246;DHT22;54412;51.206;6.888;2023-02-03T18:46:25;9.80;99.90
5246;DHT22;54412;51.206;6.888;2023-02-03T18:48:53;9.80;99.90
5246;DHT22;54412;51.206;6.888;2023-02-03T18:51:21;9.80;99.90
5246;DHT22;54412;51.206;6.888;2023-02-03T18:53:48;9.80;99.90
5246;DHT22;54412;51.206;6.888;2023-02-03T18:56:24;9.90;99.90